sensor_id;sensor_type;location;lat;lon;timestamp;temperature;humidity
53208;DHT22;39093;52.788;6.940;2023-09-30T00:02:04;12.70;99.90
53208;DHT22;39093;52.788;6.940;2023-09-30T00:04:31;12.70;99.90
53208;DHT22;39093;52.788;6.940;2023-09-30T00:06:58;12.70;99.90
53208;DHT22;39093;52.788;6.940;2023-09-30T00:09:26;12.70;99.90
53208;DHT22;39093;52.788;6.940;2023-09-30T00:11:53;12.70;99.90
53208;DHT22;39093;52.788;6.940;2023-09-30T00:14:22;12.70;99.90
53208;DHT22;39093;52.788;6.940;2023-09-30T00:16:49;12.70;99.90
53208;DHT22;39093;52.788;6.940;2023-09-30T00:19:17;12.70;99.90
53208;DHT22;39093;52.788;6.940;2023-09-30T00:21:44;12.70;99.90
53208;DHT22;39093;52.788;6.940;2023-09-30T00:24:11;12.60;99.90
53208;DHT22;39093;52.788;6.940;2023-09-30T00:26:38;12.60;99.90
53208;DHT22;39093;52.788;6.940;2023-09-30T00:29:05;12.70;99.90
53208;DHT22;39093;52.788;6.940;2023-09-30T00:31:32;12.70;99.90
53208;DHT22;39093;52.788;6.940;2023-09-30T00:33:59;12.60;99.90
53208;DHT22;39093;52.788;6.940;2023-09-30T00:36:26;12.70;99.90
53208;DHT22;39093;52.788;6.940;2023-09-30T00:38:53;12.60;99.90
53208;DHT22;39093;52.788;6.940;2023-09-30T00:41:20;12.60;99.90
53208;DHT22;39093;52.788;6.940;2023-09-30T00:43:47;12.60;99.90
53208;DHT22;39093;52.788;6.940;2023-09-30T00:46:25;12.60;99.90
53208;DHT22;39093;52.788;6.940;2023-09-30T00:48:55;12.60;99.90
53208;DHT22;39093;52.788;6.940;2023-09-30T00:51:22;12.60;99.90
53208;DHT22;39093;52.788;6.940;2023-09-30T00:53:51;12.50;99.90
53208;DHT22;39093;52.788;6.940;2023-09-30T00:56:25;12.50;99.90
53208;DHT22;39093;52.788;6.940;2023-09-30T00:58:52;12.50;99.90
53208;DHT22;39093;52.788;6.940;2023-09-30T01:01:20;12.50;99.90
53208;DHT22;39093;52.788;6.940;2023-09-30T01:03:48;12.50;99.90
53208;DHT22;39093;52.788;6.940;2023-09-30T01:06:18;12.40;99.90
53208;DHT22;39093;52.788;6.940;2023-09-30T01:08:48;12.40;99.90
53208;DHT22;39093;52.788;6.940;2023-09-30T01:11:15;12.40;99.90
53208;DHT22;39093;52.788;6.940;2023-09-30T01:13:42;12.50;99.90
53208;DHT22;39093;52.788;6.940;2023-09-30T01:16:11;12.50;99.90
53208;DHT22;39093;52.788;6.940;2023-09-30T01:18:40;12.40;99.90
53208;DHT22;39093;52.788;6.940;2023-09-30T01:21:10;12.50;99.90
53208;DHT22;39093;52.788;6.940;2023-09-30T01:23:38;12.40;99.90
53208;DHT22;39093;52.788;6.940;2023-09-30T01:26:10;12.50;99.90
53208;DHT22;39093;52.788;6.940;2023-09-30T01:28:39;12.40;99.90
53208;DHT22;39093;52.788;6.940;2023-09-30T01:31:09;12.40;99.90
53208;DHT22;39093;52.788;6.940;2023-09-30T01:33:39;12.40;99.90
53208;DHT22;39093;52.788;6.940;2023-09-30T01:36:06;12.30;99.90
53208;DHT22;39093;52.788;6.940;2023-09-30T01:38:33;12.40;99.90
53208;DHT22;39093;52.788;6.940;2023-09-30T01:41:00;12.40;99.90
53208;DHT22;39093;52.788;6.940;2023-09-30T01:43:27;12.30;99.90
53208;DHT22;39093;52.788;6.940;2023-09-30T01:45:55;12.40;99.90
53208;DHT22;39093;52.788;6.940;2023-09-30T01:48:28;12.40;99.90
53208;DHT22;39093;52.788;6.940;2023-09-30T01:50:54;12.40;99.90
53208;DHT22;39093;52.788;6.940;2023-09-30T01:53:21;12.30;99.90
53208;DHT22;39093;52.788;6.940;2023-09-30T01:55:48;12.30;99.90
53208;DHT22;39093;52.788;6.940;2023-09-30T01:58:15;12.40;99.90
53208;DHT22;39093;52.788;6.940;2023-09-30T02:00:42;12.40;99.90
53208;DHT22;39093;52.788;6.940;2023-09-30T02:03:09;12.40;99.90
53208;DHT22;39093;52.788;6.940;2023-09-30T02:05:38;12.40;99.90
53208;DHT22;39093;52.788;6.940;2023-09-30T02:08:05;12.30;99.90
53208;DHT22;39093;52.788;6.940;2023-09-30T02:10:33;12.30;99.90
53208;DHT22;39093;52.788;6.940;2023-09-30T02:13:00;12.40;99.90
53208;DHT22;39093;52.788;6.940;2023-09-30T02:15:27;12.30;99.90
53208;DHT22;39093;52.788;6.940;2023-09-30T02:17:54;12.20;99.90
53208;DHT22;39093;52.788;6.940;2023-09-30T02:20:21;12.30;99.90
53208;DHT22;39093;52.788;6.940;2023-09-30T02:22:52;12.20;99.90
53208;DHT22;39093;52.788;6.940;2023-09-30T02:25:21;12.20;99.90
53208;DHT22;39093;52.788;6.940;2023-09-30T02:27:49;12.20;99.90
53208;DHT22;39093;52.788;6.940;2023-09-30T02:30:16;12.20;99.90
53208;DHT22;39093;52.788;6.940;2023-09-30T02:32:44;12.20;99.90
53208;DHT22;39093;52.788;6.940;2023-09-30T02:35:13;12.20;99.90
53208;DHT22;39093;52.788;6.940;2023-09-30T02:37:42;12.20;99.90
53208;DHT22;39093;52.788;6.940;2023-09-30T02:40:09;12.20;99.90
53208;DHT22;39093;52.788;6.940;2023-09-30T02:42:38;12.10;99.90
53208;DHT22;39093;52.788;6.940;2023-09-30T02:45:06;12.10;99.90
53208;DHT22;39093;52.788;6.940;2023-09-30T02:47:35;12.20;99.90
53208;DHT22;39093;52.788;6.940;2023-09-30T02:50:04;12.10;99.90
53208;DHT22;39093;52.788;6.940;2023-09-30T02:52:31;12.10;99.90
53208;DHT22;39093;52.788;6.940;2023-09-30T02:54:58;12.20;99.90
53208;DHT22;39093;52.788;6.940;2023-09-30T02:57:26;12.20;99.90
53208;DHT22;39093;52.788;6.940;2023-09-30T02:59:56;12.20;99.90
53208;DHT22;39093;52.788;6.940;2023-09-30T03:02:23;12.10;99.90
53208;DHT22;39093;52.788;6.940;2023-09-30T03:04:51;12.10;99.90
53208;DHT22;39093;52.788;6.940;2023-09-30T03:07:20;12.20;99.90
53208;DHT22;39093;52.788;6.940;2023-09-30T03:09:47;12.10;99.90
53208;DHT22;39093;52.788;6.940;2023-09-30T03:12:15;12.10;99.90
53208;DHT22;39093;52.788;6.940;2023-09-30T03:14:42;12.10;99.90
53208;DHT22;39093;52.788;6.940;2023-09-30T03:17:09;12.10;99.90
53208;DHT22;39093;52.788;6.940;2023-09-30T03:19:39;12.10;99.90
53208;DHT22;39093;52.788;6.940;2023-09-30T03:22:06;12.10;99.90
53208;DHT22;39093;52.788;6.940;2023-09-30T03:24:39;12.10;99.90
53208;DHT22;39093;52.788;6.940;2023-09-30T03:27:07;12.10;99.90
53208;DHT22;39093;52.788;6.940;2023-09-30T03:29:38;12.10;99.90
53208;DHT22;39093;52.788;6.940;2023-09-30T03:32:05;12.10;99.90
53208;DHT22;39093;52.788;6.940;2023-09-30T03:34:35;12.00;99.90
53208;DHT22;39093;52.788;6.940;2023-09-30T03:37:06;12.00;99.90
53208;DHT22;39093;52.788;6.940;2023-09-30T03:39:34;12.00;99.90
53208;DHT22;39093;52.788;6.940;2023-09-30T03:42:01;12.00;99.90
53208;DHT22;39093;52.788;6.940;2023-09-30T03:44:28;12.00;99.90
53208;DHT22;39093;52.788;6.940;2023-09-30T03:46:55;12.00;99.90
53208;DHT22;39093;52.788;6.940;2023-09-30T03:49:23;12.00;99.90
53208;DHT22;39093;52.788;6.940;2023-09-30T03:51:51;12.00;99.90
53208;DHT22;39093;52.788;6.940;2023-09-30T03:54:20;11.90;99.90
53208;DHT22;39093;52.788;6.940;2023-09-30T03:56:48;11.90;99.90
53208;DHT22;39093;52.788;6.940;2023-09-30T03:59:14;11.90;99.90
53208;DHT22;39093;52.788;6.940;2023-09-30T04:01:42;11.90;99.90
53208;DHT22;39093;52.788;6.940;2023-09-30T04:04:10;11.90;99.90
53208;DHT22;39093;52.788;6.940;2023-09-30T04:06:38;11.80;99.90
53208;DHT22;39093;52.788;6.940;2023-09-30T04:09:06;11.80;99.90
53208;DHT22;39093;52.788;6.940;2023-09-30T04:11:39;11.80;99.90
53208;DHT22;39093;52.788;6.940;2023-09-30T04:14:09;11.80;99.90
53208;DHT22;39093;52.788;6.940;2023-09-30T04:16:36;11.80;99.90
53208;DHT22;39093;52.788;6.940;2023-09-30T04:19:04;11.80;99.90
53208;DHT22;39093;52.788;6.940;2023-09-30T04:21:31;11.80;99.90
53208;DHT22;39093;52.788;6.940;2023-09-30T04:24:01;11.80;99.90
53208;DHT22;39093;52.788;6.940;2023-09-30T04:26:28;11.80;99.90
53208;DHT22;39093;52.788;6.940;2023-09-30T04:28:58;11.80;99.90
53208;DHT22;39093;52.788;6.940;2023-09-30T04:31:24;11.80;99.90
53208;DHT22;39093;52.788;6.940;2023-09-30T04:33:52;11.80;99.90
53208;DHT22;39093;52.788;6.940;2023-09-30T04:36:20;11.90;99.90
53208;DHT22;39093;52.788;6.940;2023-09-30T04:38:48;11.80;99.90
53208;DHT22;39093;52.788;6.940;2023-09-30T04:41:15;11.80;99.90
53208;DHT22;39093;52.788;6.940;2023-09-30T04:43:42;11.80;99.90
53208;DHT22;39093;52.788;6.940;2023-09-30T04:46:10;11.90;99.90
53208;DHT22;39093;52.788;6.940;2023-09-30T04:48:40;11.90;99.90
53208;DHT22;39093;52.788;6.940;2023-09-30T04:51:08;11.90;99.90
53208;DHT22;39093;52.788;6.940;2023-09-30T04:53:37;11.90;99.90
53208;DHT22;39093;52.788;6.940;2023-09-30T04:56:04;11.90;99.90
53208;DHT22;39093;52.788;6.940;2023-09-30T04:58:31;11.90;99.90
53208;DHT22;39093;52.788;6.940;2023-09-30T05:00:58;11.90;99.90
53208;DHT22;39093;52.788;6.940;2023-09-30T05:03:25;11.90;99.90
53208;DHT22;39093;52.788;6.940;2023-09-30T05:05:53;11.90;99.90
53208;DHT22;39093;52.788;6.940;2023-09-30T05:08:23;11.90;99.90
53208;DHT22;39093;52.788;6.940;2023-09-30T05:10:50;11.80;99.90
53208;DHT22;39093;52.788;6.940;2023-09-30T05:13:17;11.90;99.90
53208;DHT22;39093;52.788;6.940;2023-09-30T05:15:45;11.90;99.90
53208;DHT22;39093;52.788;6.940;2023-09-30T05:18:13;11.90;99.90
53208;DHT22;39093;52.788;6.940;2023-09-30T05:20:40;11.90;99.90
53208;DHT22;39093;52.788;6.940;2023-09-30T05:23:07;11.90;99.90
53208;DHT22;39093;52.788;6.940;2023-09-30T05:25:34;11.90;99.90
53208;DHT22;39093;52.788;6.940;2023-09-30T05:28:03;11.90;99.90
53208;DHT22;39093;52.788;6.940;2023-09-30T05:30:31;11.90;99.90
53208;DHT22;39093;52.788;6.940;2023-09-30T05:32:58;12.00;99.90
53208;DHT22;39093;52.788;6.940;2023-09-30T05:35:25;11.90;99.90
53208;DHT22;39093;52.788;6.940;2023-09-30T05:37:53;12.00;99.90
53208;DHT22;39093;52.788;6.940;2023-09-30T05:40:20;12.00;99.90
53208;DHT22;39093;52.788;6.940;2023-09-30T05:42:57;12.10;99.90
53208;DHT22;39093;52.788;6.940;2023-09-30T05:45:27;12.00;99.90
53208;DHT22;39093;52.788;6.940;2023-09-30T05:47:55;12.00;99.90
53208;DHT22;39093;52.788;6.940;2023-09-30T05:50:24;12.00;99.90
53208;DHT22;39093;52.788;6.940;2023-09-30T05:52:54;12.10;99.90
53208;DHT22;39093;52.788;6.940;2023-09-30T05:55:22;12.00;99.90
53208;DHT22;39093;52.788;6.940;2023-09-30T05:57:51;12.00;99.90
53208;DHT22;39093;52.788;6.940;2023-09-30T06:00:22;12.00;99.90
53208;DHT22;39093;52.788;6.940;2023-09-30T06:02:58;12.00;99.90
53208;DHT22;39093;52.788;6.940;2023-09-30T06:05:26;12.00;99.90
53208;DHT22;39093;52.788;6.940;2023-09-30T06:07:53;12.10;99.90
53208;DHT22;39093;52.788;6.940;2023-09-30T06:10:23;12.10;99.90
53208;DHT22;39093;52.788;6.940;2023-09-30T06:12:53;12.10;99.90
53208;DHT22;39093;52.788;6.940;2023-09-30T06:15:27;12.00;99.90
53208;DHT22;39093;52.788;6.940;2023-09-30T06:17:55;12.10;99.90
53208;DHT22;39093;52.788;6.940;2023-09-30T06:20:22;12.10;99.90
53208;DHT22;39093;52.788;6.940;2023-09-30T06:22:53;12.10;99.90
53208;DHT22;39093;52.788;6.940;2023-09-30T06:25:20;12.10;99.90
53208;DHT22;39093;52.788;6.940;2023-09-30T06:27:48;12.10;99.90
53208;DHT22;39093;52.788;6.940;2023-09-30T06:30:18;12.10;99.90
53208;DHT22;39093;52.788;6.940;2023-09-30T06:32:49;12.10;99.90
53208;DHT22;39093;52.788;6.940;2023-09-30T06:35:16;12.10;99.90
53208;DHT22;39093;52.788;6.940;2023-09-30T06:37:46;12.20;99.90
53208;DHT22;39093;52.788;6.940;2023-09-30T06:40:12;12.20;99.90
53208;DHT22;39093;52.788;6.940;2023-09-30T06:42:40;12.20;99.90
53208;DHT22;39093;52.788;6.940;2023-09-30T06:45:07;12.30;99.90
53208;DHT22;39093;52.788;6.940;2023-09-30T06:47:35;12.30;99.90
53208;DHT22;39093;52.788;6.940;2023-09-30T06:50:07;12.40;99.90
53208;DHT22;39093;52.788;6.940;2023-09-30T06:52:36;12.30;99.90
53208;DHT22;39093;52.788;6.940;2023-09-30T06:55:03;12.40;99.90
53208;DHT22;39093;52.788;6.940;2023-09-30T06:57:39;12.30;99.90
53208;DHT22;39093;52.788;6.940;2023-09-30T07:00:12;12.30;99.90
53208;DHT22;39093;52.788;6.940;2023-09-30T07:02:41;12.40;99.90
53208;DHT22;39093;52.788;6.940;2023-09-30T07:07:36;12.50;99.90
53208;DHT22;39093;52.788;6.940;2023-09-30T07:10:04;12.50;99.90
53208;DHT22;39093;52.788;6.940;2023-09-30T07:12:32;12.60;99.90
53208;DHT22;39093;52.788;6.940;2023-09-30T07:15:03;12.70;99.90
53208;DHT22;39093;52.788;6.940;2023-09-30T07:17:32;12.70;99.90
53208;DHT22;39093;52.788;6.940;2023-09-30T07:20:00;12.70;99.90
53208;DHT22;39093;52.788;6.940;2023-09-30T07:22:27;12.70;99.90
53208;DHT22;39093;52.788;6.940;2023-09-30T07:25:12;12.80;99.90
53208;DHT22;39093;52.788;6.940;2023-09-30T07:27:42;12.80;99.90
53208;DHT22;39093;52.788;6.940;2023-09-30T07:30:10;12.90;99.90
53208;DHT22;39093;52.788;6.940;2023-09-30T07:32:38;12.90;99.90
53208;DHT22;39093;52.788;6.940;2023-09-30T07:35:06;13.00;99.90
53208;DHT22;39093;52.788;6.940;2023-09-30T07:37:33;13.00;99.90
53208;DHT22;39093;52.788;6.940;2023-09-30T07:40:00;13.10;99.90
53208;DHT22;39093;52.788;6.940;2023-09-30T07:42:27;13.10;99.90
53208;DHT22;39093;52.788;6.940;2023-09-30T07:44:54;13.10;99.90
53208;DHT22;39093;52.788;6.940;2023-09-30T07:47:21;13.20;99.90
53208;DHT22;39093;52.788;6.940;2023-09-30T07:49:48;13.20;99.90
53208;DHT22;39093;52.788;6.940;2023-09-30T07:52:15;13.30;99.90
53208;DHT22;39093;52.788;6.940;2023-09-30T07:54:44;13.40;99.90
53208;DHT22;39093;52.788;6.940;2023-09-30T07:57:11;13.40;99.90
53208;DHT22;39093;52.788;6.940;2023-09-30T07:59:38;13.50;99.90
53208;DHT22;39093;52.788;6.940;2023-09-30T08:02:05;13.60;99.90
53208;DHT22;39093;52.788;6.940;2023-09-30T08:04:33;13.70;99.90
53208;DHT22;39093;52.788;6.940;2023-09-30T08:07:00;13.80;99.90
53208;DHT22;39093;52.788;6.940;2023-09-30T08:09:27;13.80;99.90
53208;DHT22;39093;52.788;6.940;2023-09-30T08:11:54;13.90;99.90
53208;DHT22;39093;52.788;6.940;2023-09-30T08:14:21;14.00;99.90
53208;DHT22;39093;52.788;6.940;2023-09-30T08:16:49;14.10;99.90
53208;DHT22;39093;52.788;6.940;2023-09-30T08:19:16;14.30;99.90
53208;DHT22;39093;52.788;6.940;2023-09-30T08:21:43;14.30;99.90
53208;DHT22;39093;52.788;6.940;2023-09-30T08:24:11;14.40;99.90
53208;DHT22;39093;52.788;6.940;2023-09-30T08:26:38;14.40;99.90
53208;DHT22;39093;52.788;6.940;2023-09-30T08:29:05;14.40;99.90
53208;DHT22;39093;52.788;6.940;2023-09-30T08:31:33;14.40;99.90
53208;DHT22;39093;52.788;6.940;2023-09-30T08:34:00;14.50;99.90
53208;DHT22;39093;52.788;6.940;2023-09-30T08:36:29;14.40;99.90
53208;DHT22;39093;52.788;6.940;2023-09-30T08:38:56;14.40;99.90
53208;DHT22;39093;52.788;6.940;2023-09-30T08:41:35;14.50;99.90
53208;DHT22;39093;52.788;6.940;2023-09-30T08:44:04;14.40;99.90
53208;DHT22;39093;52.788;6.940;2023-09-30T08:46:35;14.40;99.90
53208;DHT22;39093;52.788;6.940;2023-09-30T08:49:03;14.50;99.90
53208;DHT22;39093;52.788;6.940;2023-09-30T08:51:31;14.50;99.90
53208;DHT22;39093;52.788;6.940;2023-09-30T08:53:59;14.50;99.90
53208;DHT22;39093;52.788;6.940;2023-09-30T08:56:29;14.60;99.90
53208;DHT22;39093;52.788;6.940;2023-09-30T08:58:58;14.70;99.90
53208;DHT22;39093;52.788;6.940;2023-09-30T09:01:30;14.70;99.90
53208;DHT22;39093;52.788;6.940;2023-09-30T09:03:57;14.80;99.90
53208;DHT22;39093;52.788;6.940;2023-09-30T09:06:25;15.00;99.90
53208;DHT22;39093;52.788;6.940;2023-09-30T09:08:53;15.10;99.90
53208;DHT22;39093;52.788;6.940;2023-09-30T09:11:20;15.20;99.90
53208;DHT22;39093;52.788;6.940;2023-09-30T09:13:50;15.20;99.90
53208;DHT22;39093;52.788;6.940;2023-09-30T09:16:17;15.30;99.90
53208;DHT22;39093;52.788;6.940;2023-09-30T09:18:46;15.30;99.90
53208;DHT22;39093;52.788;6.940;2023-09-30T09:21:17;15.30;99.90
53208;DHT22;39093;52.788;6.940;2023-09-30T09:23:48;15.40;99.90
53208;DHT22;39093;52.788;6.940;2023-09-30T09:26:26;15.60;99.90
53208;DHT22;39093;52.788;6.940;2023-09-30T09:29:00;15.70;99.90
53208;DHT22;39093;52.788;6.940;2023-09-30T09:31:36;15.70;99.90
53208;DHT22;39093;52.788;6.940;2023-09-30T09:34:12;15.80;99.90
53208;DHT22;39093;52.788;6.940;2023-09-30T09:36:44;15.80;99.90
53208;DHT22;39093;52.788;6.940;2023-09-30T09:39:11;15.90;99.90
53208;DHT22;39093;52.788;6.940;2023-09-30T09:41:50;15.80;99.90
53208;DHT22;39093;52.788;6.940;2023-09-30T09:44:24;15.90;99.90
53208;DHT22;39093;52.788;6.940;2023-09-30T09:46:54;16.00;99.90
53208;DHT22;39093;52.788;6.940;2023-09-30T09:49:21;16.00;99.90
53208;DHT22;39093;52.788;6.940;2023-09-30T09:51:49;16.10;99.90
53208;DHT22;39093;52.788;6.940;2023-09-30T09:54:17;16.10;99.90
53208;DHT22;39093;52.788;6.940;2023-09-30T09:56:45;16.10;99.90
53208;DHT22;39093;52.788;6.940;2023-09-30T09:59:13;16.10;99.90
53208;DHT22;39093;52.788;6.940;2023-09-30T10:01:41;16.20;99.90
53208;DHT22;39093;52.788;6.940;2023-09-30T10:04:11;16.20;99.90
53208;DHT22;39093;52.788;6.940;2023-09-30T10:06:39;16.20;99.90
53208;DHT22;39093;52.788;6.940;2023-09-30T10:09:14;16.20;99.90
53208;DHT22;39093;52.788;6.940;2023-09-30T10:11:42;16.30;99.90
53208;DHT22;39093;52.788;6.940;2023-09-30T10:14:32;16.40;99.90
53208;DHT22;39093;52.788;6.940;2023-09-30T10:16:59;16.40;99.90
53208;DHT22;39093;52.788;6.940;2023-09-30T10:19:27;16.40;99.90
53208;DHT22;39093;52.788;6.940;2023-09-30T10:24:56;16.50;99.90
53208;DHT22;39093;52.788;6.940;2023-09-30T10:35:42;16.70;99.90
53208;DHT22;39093;52.788;6.940;2023-09-30T10:40:49;16.80;99.90
53208;DHT22;39093;52.788;6.940;2023-09-30T10:43:39;16.80;99.90
53208;DHT22;39093;52.788;6.940;2023-09-30T10:48:53;17.00;99.90
53208;DHT22;39093;52.788;6.940;2023-09-30T10:51:20;17.10;99.90
53208;DHT22;39093;52.788;6.940;2023-09-30T10:53:51;17.20;99.90
53208;DHT22;39093;52.788;6.940;2023-09-30T10:56:20;17.30;99.90
53208;DHT22;39093;52.788;6.940;2023-09-30T10:58:47;17.40;99.90
53208;DHT22;39093;52.788;6.940;2023-09-30T11:01:16;17.30;99.90
53208;DHT22;39093;52.788;6.940;2023-09-30T11:03:45;17.40;99.90
53208;DHT22;39093;52.788;6.940;2023-09-30T11:06:17;17.50;99.90
53208;DHT22;39093;52.788;6.940;2023-09-30T11:09:06;17.50;99.90
53208;DHT22;39093;52.788;6.940;2023-09-30T11:11:40;17.70;99.90
53208;DHT22;39093;52.788;6.940;2023-09-30T11:14:29;18.00;99.90
53208;DHT22;39093;52.788;6.940;2023-09-30T11:17:01;18.20;99.90
53208;DHT22;39093;52.788;6.940;2023-09-30T11:19:45;18.20;99.90
53208;DHT22;39093;52.788;6.940;2023-09-30T11:22:13;18.30;99.90
53208;DHT22;39093;52.788;6.940;2023-09-30T11:24:40;18.30;99.90
53208;DHT22;39093;52.788;6.940;2023-09-30T11:27:08;18.40;99.90
53208;DHT22;39093;52.788;6.940;2023-09-30T11:29:36;18.50;99.90
53208;DHT22;39093;52.788;6.940;2023-09-30T11:32:03;18.50;99.90
53208;DHT22;39093;52.788;6.940;2023-09-30T11:34:34;18.60;99.90
53208;DHT22;39093;52.788;6.940;2023-09-30T11:37:03;18.80;99.90
53208;DHT22;39093;52.788;6.940;2023-09-30T11:39:30;18.80;99.90
53208;DHT22;39093;52.788;6.940;2023-09-30T11:41:58;19.00;99.90
53208;DHT22;39093;52.788;6.940;2023-09-30T11:44:25;19.10;99.90
53208;DHT22;39093;52.788;6.940;2023-09-30T11:46:59;19.10;99.90
53208;DHT22;39093;52.788;6.940;2023-09-30T11:51:57;18.90;99.90
53208;DHT22;39093;52.788;6.940;2023-09-30T11:54:31;18.80;99.90
53208;DHT22;39093;52.788;6.940;2023-09-30T11:57:00;18.80;99.90
53208;DHT22;39093;52.788;6.940;2023-09-30T11:59:28;18.90;99.90
53208;DHT22;39093;52.788;6.940;2023-09-30T12:01:55;19.40;99.90
53208;DHT22;39093;52.788;6.940;2023-09-30T12:04:39;19.70;99.90
53208;DHT22;39093;52.788;6.940;2023-09-30T12:07:06;20.00;99.90
53208;DHT22;39093;52.788;6.940;2023-09-30T12:09:35;20.30;99.90
53208;DHT22;39093;52.788;6.940;2023-09-30T12:12:07;20.60;99.90
53208;DHT22;39093;52.788;6.940;2023-09-30T12:14:38;21.00;99.90
53208;DHT22;39093;52.788;6.940;2023-09-30T12:17:05;21.20;99.90
53208;DHT22;39093;52.788;6.940;2023-09-30T12:19:32;21.40;99.90
53208;DHT22;39093;52.788;6.940;2023-09-30T12:21:59;21.60;99.90
53208;DHT22;39093;52.788;6.940;2023-09-30T12:24:26;21.80;99.90
53208;DHT22;39093;52.788;6.940;2023-09-30T12:26:54;22.10;99.90
53208;DHT22;39093;52.788;6.940;2023-09-30T12:29:22;22.40;99.90
53208;DHT22;39093;52.788;6.940;2023-09-30T12:31:52;22.70;99.90
53208;DHT22;39093;52.788;6.940;2023-09-30T12:34:21;23.30;99.20
53208;DHT22;39093;52.788;6.940;2023-09-30T12:36:54;23.90;99.40
53208;DHT22;39093;52.788;6.940;2023-09-30T12:39:25;24.80;97.60
53208;DHT22;39093;52.788;6.940;2023-09-30T12:41:54;25.30;97.10
53208;DHT22;39093;52.788;6.940;2023-09-30T12:44:21;25.70;96.30
53208;DHT22;39093;52.788;6.940;2023-09-30T12:46:50;25.90;96.60
53208;DHT22;39093;52.788;6.940;2023-09-30T12:49:17;26.00;95.30
53208;DHT22;39093;52.788;6.940;2023-09-30T12:51:45;26.30;95.10
53208;DHT22;39093;52.788;6.940;2023-09-30T12:54:13;26.80;95.00
53208;DHT22;39093;52.788;6.940;2023-09-30T12:56:41;27.10;94.50
53208;DHT22;39093;52.788;6.940;2023-09-30T12:59:08;27.00;93.60
53208;DHT22;39093;52.788;6.940;2023-09-30T13:01:35;26.70;94.00
53208;DHT22;39093;52.788;6.940;2023-09-30T13:04:03;26.20;93.70
53208;DHT22;39093;52.788;6.940;2023-09-30T13:06:33;25.70;93.90
53208;DHT22;39093;52.788;6.940;2023-09-30T13:09:02;25.40;94.20
53208;DHT22;39093;52.788;6.940;2023-09-30T13:11:31;25.30;94.60
53208;DHT22;39093;52.788;6.940;2023-09-30T13:14:02;25.50;94.60
53208;DHT22;39093;52.788;6.940;2023-09-30T13:16:29;25.90;94.30
53208;DHT22;39093;52.788;6.940;2023-09-30T13:18:56;26.30;92.70
53208;DHT22;39093;52.788;6.940;2023-09-30T13:21:23;26.80;92.50
53208;DHT22;39093;52.788;6.940;2023-09-30T13:23:50;27.60;90.90
53208;DHT22;39093;52.788;6.940;2023-09-30T13:26:17;28.20;86.60
53208;DHT22;39093;52.788;6.940;2023-09-30T13:28:44;28.10;89.50
53208;DHT22;39093;52.788;6.940;2023-09-30T13:31:11;28.00;88.30
53208;DHT22;39093;52.788;6.940;2023-09-30T13:33:38;28.00;89.60
53208;DHT22;39093;52.788;6.940;2023-09-30T13:36:05;28.40;87.80
53208;DHT22;39093;52.788;6.940;2023-09-30T13:38:32;28.60;86.10
53208;DHT22;39093;52.788;6.940;2023-09-30T13:40:59;28.30;87.50
53208;DHT22;39093;52.788;6.940;2023-09-30T13:43:27;27.90;88.60
53208;DHT22;39093;52.788;6.940;2023-09-30T13:45:54;26.70;88.00
53208;DHT22;39093;52.788;6.940;2023-09-30T13:48:23;25.50;88.80
53208;DHT22;39093;52.788;6.940;2023-09-30T13:50:50;24.30;90.10
53208;DHT22;39093;52.788;6.940;2023-09-30T13:53:17;23.90;90.80
53208;DHT22;39093;52.788;6.940;2023-09-30T13:55:44;23.60;91.80
53208;DHT22;39093;52.788;6.940;2023-09-30T13:58:12;23.70;92.20
53208;DHT22;39093;52.788;6.940;2023-09-30T14:00:39;24.30;92.70
53208;DHT22;39093;52.788;6.940;2023-09-30T14:03:06;25.10;91.90
53208;DHT22;39093;52.788;6.940;2023-09-30T14:05:34;25.80;90.80
53208;DHT22;39093;52.788;6.940;2023-09-30T14:08:02;26.00;89.40
53208;DHT22;39093;52.788;6.940;2023-09-30T14:10:30;25.40;89.10
53208;DHT22;39093;52.788;6.940;2023-09-30T14:12:57;24.60;90.40
53208;DHT22;39093;52.788;6.940;2023-09-30T14:15:24;24.10;90.80
53208;DHT22;39093;52.788;6.940;2023-09-30T14:17:57;23.50;91.00
53208;DHT22;39093;52.788;6.940;2023-09-30T14:20:25;22.90;91.60
53208;DHT22;39093;52.788;6.940;2023-09-30T14:22:52;22.60;92.40
53208;DHT22;39093;52.788;6.940;2023-09-30T14:25:19;22.30;92.00
53208;DHT22;39093;52.788;6.940;2023-09-30T14:27:45;22.00;92.40
53208;DHT22;39093;52.788;6.940;2023-09-30T14:30:13;21.90;92.90
53208;DHT22;39093;52.788;6.940;2023-09-30T14:32:41;21.70;93.50
53208;DHT22;39093;52.788;6.940;2023-09-30T14:35:09;21.50;93.70
53208;DHT22;39093;52.788;6.940;2023-09-30T14:37:36;21.40;94.50
53208;DHT22;39093;52.788;6.940;2023-09-30T14:40:03;21.40;94.10
53208;DHT22;39093;52.788;6.940;2023-09-30T14:42:37;21.30;94.70
53208;DHT22;39093;52.788;6.940;2023-09-30T14:45:05;21.20;94.60
53208;DHT22;39093;52.788;6.940;2023-09-30T14:47:32;21.10;94.50
53208;DHT22;39093;52.788;6.940;2023-09-30T14:50:00;21.00;94.80
53208;DHT22;39093;52.788;6.940;2023-09-30T14:52:28;21.00;95.00
53208;DHT22;39093;52.788;6.940;2023-09-30T14:54:55;21.00;95.20
53208;DHT22;39093;52.788;6.940;2023-09-30T14:57:22;21.10;95.10
53208;DHT22;39093;52.788;6.940;2023-09-30T14:59:49;21.00;95.20
53208;DHT22;39093;52.788;6.940;2023-09-30T15:02:16;20.90;96.00
53208;DHT22;39093;52.788;6.940;2023-09-30T15:04:44;20.80;96.40
53208;DHT22;39093;52.788;6.940;2023-09-30T15:07:11;20.60;96.30
53208;DHT22;39093;52.788;6.940;2023-09-30T15:09:38;20.50;96.60
53208;DHT22;39093;52.788;6.940;2023-09-30T15:12:09;20.40;97.10
53208;DHT22;39093;52.788;6.940;2023-09-30T15:14:36;20.30;97.80
53208;DHT22;39093;52.788;6.940;2023-09-30T15:17:03;20.20;97.20
53208;DHT22;39093;52.788;6.940;2023-09-30T15:19:30;20.20;97.80
53208;DHT22;39093;52.788;6.940;2023-09-30T15:21:57;20.20;97.90
53208;DHT22;39093;52.788;6.940;2023-09-30T15:24:25;20.20;99.10
53208;DHT22;39093;52.788;6.940;2023-09-30T15:26:52;20.20;99.20
53208;DHT22;39093;52.788;6.940;2023-09-30T15:29:19;20.20;99.90
53208;DHT22;39093;52.788;6.940;2023-09-30T15:31:46;20.20;98.80
53208;DHT22;39093;52.788;6.940;2023-09-30T15:34:13;20.10;99.10
53208;DHT22;39093;52.788;6.940;2023-09-30T15:36:40;20.10;99.30
53208;DHT22;39093;52.788;6.940;2023-09-30T15:39:08;20.00;98.70
53208;DHT22;39093;52.788;6.940;2023-09-30T15:41:35;19.90;98.70
53208;DHT22;39093;52.788;6.940;2023-09-30T15:44:02;19.80;99.00
53208;DHT22;39093;52.788;6.940;2023-09-30T15:46:29;19.70;99.60
53208;DHT22;39093;52.788;6.940;2023-09-30T15:48:56;19.70;99.40
53208;DHT22;39093;52.788;6.940;2023-09-30T15:51:23;19.60;99.50
53208;DHT22;39093;52.788;6.940;2023-09-30T15:53:50;19.60;99.90
53208;DHT22;39093;52.788;6.940;2023-09-30T15:56:17;19.50;99.90
53208;DHT22;39093;52.788;6.940;2023-09-30T15:58:44;19.40;99.90
53208;DHT22;39093;52.788;6.940;2023-09-30T16:01:12;19.30;99.90